Time;durP1;ratioP1;P1;durP2;ratioP2;P2;SDS_P1;SDS_P2;PMS_P1;PMS_P2;Temp;Humidity;BMP_temperature;BMP_pressure;BME280_temperature;BME280_humidity;BME280_pressure;Samples;Min_cycle;Max_cycle;Signal;HPM_P1;HPM_P2
2023/09/05 00:00:18;;;;;;;4.20;3.03;;;18.00;99.90;;;;;;5095846;28;20039;-67
2023/09/05 00:02:45;;;;;;;3.25;2.95;;;18.00;99.90;;;;;;5095382;28;20048;-67
2023/09/05 00:05:11;;;;;;;4.30;3.30;;;18.00;99.60;;;;;;5095224;28;20032;-68
2023/09/05 00:07:39;;;;;;;3.35;2.72;;;18.10;99.40;;;;;;5102783;28;20038;-68
2023/09/05 00:10:13;;;;;;;5.65;2.85;;;18.10;99.30;;;;;;5097600;28;20037;-69
2023/09/05 00:12:43;;;;;;;3.78;2.92;;;18.10;99.20;;;;;;5082161;28;20028;-69
2023/09/05 00:15:12;;;;;;;;;;;18.10;99.00;;;;;;5084408;28;20054;-69
2023/09/05 00:17:38;;;;;;;5.13;2.88;;;18.10;98.80;;;;;;5081655;28;19912;-68
2023/09/05 00:20:05;;;;;;;3.45;2.97;;;18.20;98.60;;;;;;5074879;28;20032;-69
2023/09/05 00:22:31;;;;;;;3.72;2.83;;;18.20;98.20;;;;;;5084291;28;20036;-69
2023/09/05 00:24:57;;;;;;;4.43;3.10;;;18.20;98.20;;;;;;5094958;28;20031;-69
2023/09/05 00:27:22;;;;;;;4.10;2.75;;;18.10;97.90;;;;;;5089383;28;20028;-70
2023/09/05 00:29:48;;;;;;;4.88;3.15;;;18.30;97.40;;;;;;5114590;28;20095;-69
2023/09/05 00:32:14;;;;;;;3.53;2.55;;;18.30;97.60;;;;;;5115423;28;20441;-69
2023/09/05 00:34:40;;;;;;;7.75;2.88;;;18.40;97.20;;;;;;5113845;28;20055;-69
2023/09/05 00:37:07;;;;;;;4.30;2.60;;;18.50;97.00;;;;;;5115459;28;20027;-69
2023/09/05 00:39:34;;;;;;;2.45;2.25;;;18.50;97.00;;;;;;5094049;28;20055;-69
2023/09/05 00:42:01;;;;;;;2.92;2.58;;;18.40;97.30;;;;;;5094617;28;20090;-69
2023/09/05 00:44:27;;;;;;;4.20;2.70;;;18.30;97.20;;;;;;5083721;28;20039;-69
2023/09/05 00:46:55;;;;;;;3.17;2.85;;;18.20;97.20;;;;;;5074217;28;20028;-69
2023/09/05 00:49:28;;;;;;;3.60;2.88;;;18.20;97.30;;;;;;5073221;28;20028;-67
2023/09/05 00:51:58;;;;;;;3.60;3.15;;;18.10;97.70;;;;;;5074374;28;20025;-66
2023/09/05 00:54:24;;;;;;;4.28;2.80;;;18.10;97.60;;;;;;5072857;28;20457;-67
2023/09/05 00:56:52;;;;;;;4.03;2.75;;;18.00;97.60;;;;;;5085759;28;20040;-66
2023/09/05 00:59:19;;;;;;;5.47;2.75;;;18.00;97.70;;;;;;5093988;28;20120;-66
2023/09/05 01:01:45;;;;;;;3.72;2.83;;;17.90;97.60;;;;;;5081594;28;20044;-67
2023/09/05 01:04:10;;;;;;;3.78;2.40;;;18.00;98.00;;;;;;5073304;28;20028;-67
2023/09/05 01:07:04;;;;;;;3.30;2.33;;;17.90;98.00;;;;;;5085934;28;20059;-67
2023/09/05 01:09:40;;;;;;;2.85;2.55;;;17.90;99.90;;;;;;5092862;28;20085;-69
2023/09/05 01:12:08;;;;;;;3.92;2.78;;;17.80;99.90;;;;;;5090939;28;20040;-69
2023/09/05 01:14:33;;;;;;;3.00;2.70;;;17.80;99.90;;;;;;5090702;28;20036;-69
2023/09/05 01:17:01;;;;;;;3.90;2.90;;;17.70;99.90;;;;;;5093925;28;20381;-69
2023/09/05 01:19:30;;;;;;;4.45;3.03;;;17.60;99.90;;;;;;5074762;28;20024;-69
2023/09/05 01:22:43;;;;;;;4.28;2.80;;;17.50;99.90;;;;;;5073773;28;20032;-69
2023/09/05 01:25:11;;;;;;;6.22;2.55;;;17.40;99.90;;;;;;4972261;28;20046;-68
2023/09/05 01:27:36;;;;;;;2.70;2.28;;;17.50;99.90;;;;;;4974819;28;20026;-69
2023/09/05 01:30:05;;;;;;;4.32;2.80;;;17.40;99.90;;;;;;5045694;28;20051;-69
2023/09/05 01:32:33;;;;;;;3.78;2.80;;;;;;;;;;5112414;28;20084;-69
2023/09/05 01:34:59;;;;;;;3.97;3.05;;;17.10;99.90;;;;;;5102529;28;20031;-69
2023/09/05 01:37:24;;;;;;;4.00;2.70;;;17.20;99.90;;;;;;5072012;28;20099;-69
2023/09/05 01:39:50;;;;;;;5.20;2.80;;;17.10;99.90;;;;;;5073593;28;20024;-68
2023/09/05 01:42:18;;;;;;;4.28;2.95;;;;;;;;;;5072985;28;20055;-69
2023/09/05 01:44:43;;;;;;;3.80;2.63;;;;;;;;;;5071819;28;20501;-69
2023/09/05 01:47:09;;;;;;;5.80;2.70;;;;;;;;;;5072649;28;20120;-69
2023/09/05 01:49:36;;;;;;;3.65;3.20;;;;;;;;;;5090786;28;20494;-69
2023/09/05 01:52:02;;;;;;;10.32;3.38;;;;;;;;;;5087139;28;20039;-68
2023/09/05 01:54:28;;;;;;;6.00;3.08;;;;;;;;;;5071529;28;20032;-67
2023/09/05 01:56:54;;;;;;;4.82;3.10;;;;;;;;;;5072107;28;20463;-67
2023/09/05 01:59:21;;;;;;;4.05;2.78;;;;;;;;;;5072160;28;20035;-68
2023/09/05 02:01:49;;;;;;;5.90;3.03;;;;;;;;;;5072103;28;20024;-68
2023/09/05 02:04:15;;;;;;;5.05;3.00;;;16.10;99.90;;;;;;5085117;28;20457;-68
2023/09/05 02:06:41;;;;;;;4.18;3.10;;;16.30;99.90;;;;;;5098760;28;20031;-68
2023/09/05 02:09:07;;;;;;;3.30;2.72;;;16.20;99.90;;;;;;5085675;28;20393;-68
2023/09/05 02:11:33;;;;;;;3.53;2.70;;;16.10;99.90;;;;;;5071761;28;20123;-68
2023/09/05 02:13:58;;;;;;;4.03;2.72;;;16.10;99.90;;;;;;5071602;28;20104;-68
2023/09/05 02:16:24;;;;;;;5.38;3.22;;;16.10;99.90;;;;;;5071755;28;20025;-68
2023/09/05 02:18:50;;;;;;;3.83;2.97;;;16.00;99.90;;;;;;5053790;28;20303;-67
2023/09/05 02:21:16;;;;;;;3.60;2.80;;;16.00;99.90;;;;;;5077780;28;20035;-67
2023/09/05 02:23:42;;;;;;;4.78;2.97;;;16.00;99.90;;;;;;5091220;28;20056;-67
2023/09/05 02:26:08;;;;;;;4.63;2.78;;;15.90;99.90;;;;;;5085594;28;20032;-67
2023/09/05 02:28:34;;;;;;;5.95;3.63;;;15.90;99.90;;;;;;5095300;28;20063;-67
2023/09/05 02:31:05;;;;;;;7.07;3.17;;;15.80;99.90;;;;;;5112809;28;20085;-67
2023/09/05 02:33:33;;;;;;;4.47;3.33;;;15.80;99.90;;;;;;5111377;28;20031;-68
2023/09/05 02:36:15;;;;;;;5.38;2.83;;;15.80;99.90;;;;;;5109734;28;20028;-68
2023/09/05 02:38:41;;;;;;;4.15;3.28;;;15.70;99.90;;;;;;5104612;28;20051;-67
2023/09/05 02:41:10;;;;;;;5.75;3.33;;;15.70;99.90;;;;;;5112693;28;20349;-67
2023/09/05 02:43:36;;;;;;;7.33;2.90;;;15.70;99.90;;;;;;5089394;28;20103;-68
2023/09/05 02:46:02;;;;;;;3.65;2.80;;;15.60;99.90;;;;;;5071918;28;20112;-67
2023/09/05 02:48:27;;;;;;;5.32;3.10;;;15.60;99.90;;;;;;5070744;28;20036;-68
2023/09/05 02:51:03;;;;;;;5.28;3.25;;;15.50;99.90;;;;;;5071676;28;20040;-67
2023/09/05 02:53:29;;;;;;;3.90;2.95;;;15.50;99.90;;;;;;5069657;28;20086;-67
2023/09/05 02:55:55;;;;;;;5.55;3.20;;;15.40;99.90;;;;;;5089479;28;20048;-67
2023/09/05 02:58:20;;;;;;;5.43;3.47;;;15.40;99.90;;;;;;5091319;28;20035;-68
2023/09/05 03:00:49;;;;;;;3.85;2.65;;;15.30;99.90;;;;;;5079208;28;20024;-67
2023/09/05 03:03:16;;;;;;;4.53;2.90;;;15.30;99.90;;;;;;5071320;28;20036;-67
2023/09/05 03:05:43;;;;;;;3.13;2.63;;;;;;;;;;5076144;28;20572;-67
2023/09/05 03:08:11;;;;;;;3.78;2.97;;;;;;;;;;5091383;28;20077;-68
2023/09/05 03:10:41;;;;;;;3.80;3.00;;;;;;;;;;5085050;28;20028;-67
2023/09/05 03:13:09;;;;;;;3.15;2.75;;;;;;;;;;5090311;28;20469;-68
2023/09/05 03:15:35;;;;;;;4.88;2.70;;;;;;;;;;5091038;28;20095;-67
2023/09/05 03:18:00;;;;;;;6.78;2.97;;;;;;;;;;5076650;28;20051;-67
2023/09/05 03:20:26;;;;;;;4.15;2.58;;;;;;;;;;5070481;28;20032;-67
2023/09/05 03:22:53;;;;;;;3.63;2.75;;;;;;;;;;5070683;28;20024;-68
2023/09/05 03:25:19;;;;;;;4.25;2.78;;;;;;;;;;5071443;28;20033;-68
2023/09/05 03:27:45;;;;;;;4.72;3.00;;;;;;;;;;5070570;28;20032;-67
2023/09/05 03:30:11;;;;;;;4.13;3.30;;;;;;;;;;5071102;28;20025;-67
2023/09/05 03:32:39;;;;;;;3.38;2.65;;;;;;;;;;5069997;28;20028;-68
2023/09/05 03:35:05;;;;;;;3.30;2.40;;;;;;;;;;5071529;28;20021;-67
2023/09/05 03:37:31;;;;;;;3.35;2.88;;;;;;;;;;5069791;28;20383;-67
2023/09/05 03:39:57;;;;;;;3.90;2.65;;;;;;;;;;5071090;28;20028;-67
2023/09/05 03:42:23;;;;;;;4.75;2.70;;;;;;;;;;5070559;28;20055;-68
2023/09/05 03:44:49;;;;;;;5.75;3.20;;;;;;;;;;5072650;28;20024;-67
2023/09/05 03:47:15;;;;;;;3.85;2.88;;;;;;;;;;5091520;28;20036;-67
2023/09/05 03:49:41;;;;;;;4.40;2.97;;;;;;;;;;5089943;28;20028;-67
2023/09/05 03:52:07;;;;;;;4.10;2.95;;;;;;;;;;5076006;28;20113;-67
2023/09/05 03:54:33;;;;;;;2.95;2.45;;;;;;;;;;5078963;28;20461;-67
2023/09/05 03:56:59;;;;;;;3.92;2.60;;;;;;;;;;5090505;28;20115;-69
2023/09/05 03:59:25;;;;;;;6.22;3.05;;;;;;;;;;5089357;28;20012;-69
2023/09/05 04:01:51;;;;;;;5.35;3.38;;;;;;;;;;5087227;28;20333;-69
2023/09/05 04:04:17;;;;;;;3.97;2.78;;;;;;;;;;5090210;28;20020;-68
2023/09/05 04:06:43;;;;;;;3.90;3.10;;;;;;;;;;5091323;28;20646;-70
2023/09/05 04:09:09;;;;;;;3.38;3.00;;;;;;;;;;5088460;28;20089;-67
2023/09/05 04:11:35;;;;;;;3.80;2.80;;;;;;;;;;5089983;28;20119;-67
2023/09/05 04:14:01;;;;;;;6.68;3.25;;;;;;;;;;5090066;28;20016;-68
2023/09/05 04:16:27;;;;;;;4.13;2.53;;;;;;;;;;5068661;28;20020;-68
2023/09/05 04:18:53;;;;;;;5.03;2.83;;;;;;;;;;5089283;28;20016;-68
2023/09/05 04:21:19;;;;;;;4.93;3.38;;;;;;;;;;5090687;28;20107;-68
2023/09/05 04:23:45;;;;;;;6.80;3.25;;;;;;;;;;5089243;28;20027;-69
2023/09/05 04:26:14;;;;;;;6.57;3.20;;;;;;;;;;5092243;28;20074;-68
2023/09/05 04:28:43;;;;;;;5.53;2.92;;;;;;;;;;5091435;28;20016;-69
2023/09/05 04:31:10;;;;;;;4.70;3.30;;;14.80;99.90;;;;;;5094181;28;20047;-68
2023/09/05 04:33:40;;;;;;;3.50;2.83;;;14.80;99.90;;;;;;5086986;28;20028;-68
2023/09/05 04:36:09;;;;;;;6.03;4.05;;;14.80;99.90;;;;;;5091076;28;20496;-69
2023/09/05 04:38:35;;;;;;;6.13;3.58;;;14.80;99.90;;;;;;5092626;28;20038;-69
2023/09/05 04:41:05;;;;;;;3.70;3.15;;;14.70;99.90;;;;;;5093265;28;20020;-69
2023/09/05 04:43:31;;;;;;;5.75;3.50;;;14.70;99.90;;;;;;5090429;28;20024;-69
2023/09/05 04:45:58;;;;;;;11.40;4.65;;;;;;;;;;5075744;28;20507;-66
2023/09/05 04:48:24;;;;;;;5.15;4.28;;;14.50;99.90;;;;;;5092553;28;20039;-68
2023/09/05 04:50:50;;;;;;;4.97;3.72;;;14.80;99.90;;;;;;5093448;28;20391;-67
2023/09/05 04:53:16;;;;;;;5.22;3.40;;;14.80;99.90;;;;;;5092837;28;20073;-67
2023/09/05 04:55:42;;;;;;;4.65;3.58;;;14.90;99.90;;;;;;5092478;28;20020;-67
2023/09/05 04:58:09;;;;;;;6.45;3.63;;;14.90;99.90;;;;;;5090655;28;20146;-69
2023/09/05 05:00:34;;;;;;;6.03;3.05;;;15.00;99.90;;;;;;5090400;28;20028;-68
2023/09/05 05:03:00;;;;;;;3.72;3.30;;;15.10;99.90;;;;;;5093271;28;20069;-68
2023/09/05 05:05:26;;;;;;;4.35;2.80;;;15.10;99.90;;;;;;5093023;28;20461;-68
2023/09/05 05:07:51;;;;;;;3.25;2.65;;;15.20;99.90;;;;;;5093352;28;20043;-68
2023/09/05 05:10:17;;;;;;;3.20;2.70;;;15.30;99.90;;;;;;5093870;28;20414;-68
2023/09/05 05:12:43;;;;;;;8.45;3.40;;;15.40;99.90;;;;;;5092582;28;20081;-68
2023/09/05 05:15:09;;;;;;;3.40;2.47;;;15.60;99.90;;;;;;5087207;28;20036;-70
2023/09/05 05:17:35;;;;;;;3.63;2.60;;;;;;;;;;5073654;28;20249;-69
2023/09/05 05:20:05;;;;;;;5.13;2.80;;;;;;;;;;5073595;28;20109;-67
2023/09/05 05:22:33;;;;;;;5.18;2.78;;;;;;;;;;5072072;28;20400;-68
2023/09/05 05:25:02;;;;;;;3.65;2.80;;;;;;;;;;5073481;28;20024;-68
2023/09/05 05:27:30;;;;;;;3.20;2.35;;;;;;;;;;5078181;28;20104;-68
2023/09/05 05:29:56;;;;;;;5.55;3.95;;;;;;;;;;5114169;28;20106;-67
2023/09/05 05:32:22;;;;;;;3.95;2.85;;;;;;;;;;5097729;28;20115;-69
2023/09/05 05:34:48;;;;;;;4.05;2.70;;;;;;;;;;5089526;28;20032;-69
2023/09/05 05:37:17;;;;;;;3.80;3.00;;;;;;;;;;5092592;28;20039;-70
2023/09/05 05:39:43;;;;;;;4.32;3.30;;;;;;;;;;5092271;28;20119;-70
2023/09/05 05:42:10;;;;;;;4.75;2.90;;;;;;;;;;5091723;28;20099;-68
2023/09/05 05:44:36;;;;;;;3.15;2.45;;;;;;;;;;5092205;28;20031;-68
2023/09/05 05:47:03;;;;;;;3.85;2.42;;;;;;;;;;5093043;28;20123;-66
2023/09/05 05:49:35;;;;;;;6.07;3.15;;;;;;;;;;5089948;28;20055;-67
2023/09/05 05:52:04;;;;;;;4.50;2.80;;;;;;;;;;5089636;28;20442;-72
2023/09/05 05:54:33;;;;;;;3.50;2.43;;;;;;;;;;5091796;28;20085;-68
2023/09/05 05:57:02;;;;;;;3.80;2.30;;;;;;;;;;5092488;28;20094;-68
2023/09/05 05:59:31;;;;;;;2.72;2.35;;;;;;;;;;5091865;28;20479;-71
2023/09/05 06:02:00;;;;;;;3.45;2.65;;;;;;;;;;5092957;28;20465;-68
2023/09/05 06:04:27;;;;;;;3.20;2.47;;;;;;;;;;5091713;28;20047;-68
2023/09/05 06:06:54;;;;;;;5.78;3.03;;;;;;;;;;5091182;28;20080;-68
2023/09/05 06:09:21;;;;;;;3.22;2.40;;;;;;;;;;5088875;28;20016;-68
2023/09/05 06:11:48;;;;;;;6.85;3.05;;;;;;;;;;5073818;28;20494;-68
2023/09/05 06:14:17;;;;;;;4.90;2.67;;;17.90;99.90;;;;;;5087378;28;20428;-69
2023/09/05 06:16:48;;;;;;;4.38;2.70;;;18.10;99.90;;;;;;5075139;28;20784;-69
2023/09/05 06:19:15;;;;;;;2.83;2.38;;;18.30;99.90;;;;;;5092066;28;20024;-70
2023/09/05 06:21:41;;;;;;;8.15;2.50;;;18.30;99.90;;;;;;5091719;28;20042;-70
2023/09/05 06:24:07;;;;;;;4.15;2.85;;;18.40;99.90;;;;;;5091510;28;20481;-69
2023/09/05 06:26:32;;;;;;;3.40;3.08;;;18.60;99.90;;;;;;5091236;28;20119;-69
2023/09/05 06:28:58;;;;;;;3.28;2.42;;;18.70;99.90;;;;;;5101373;28;20016;-69
2023/09/05 06:31:23;;;;;;;4.57;2.50;;;18.90;99.90;;;;;;5100408;28;20046;-69
2023/09/05 06:33:49;;;;;;;2.92;2.40;;;19.00;99.90;;;;;;5091479;28;20028;-68
2023/09/05 06:36:15;;;;;;;5.72;2.20;;;19.00;99.90;;;;;;5092337;28;20028;-68
2023/09/05 06:38:41;;;;;;;7.30;2.97;;;19.10;99.90;;;;;;5072779;28;20012;-68
2023/09/05 06:41:08;;;;;;;4.78;2.58;;;19.20;99.90;;;;;;5091047;28;20092;-68
2023/09/05 06:43:34;;;;;;;3.95;2.50;;;19.30;99.90;;;;;;5073105;28;20028;-68
2023/09/05 06:46:04;;;;;;;3.47;2.67;;;19.40;99.90;;;;;;5091868;28;20477;-67
2023/09/05 06:48:30;;;;;;;3.93;2.87;;;19.70;99.90;;;;;;5087864;28;20024;-68
2023/09/05 06:50:59;;;;;;;5.85;2.90;;;19.80;99.90;;;;;;5077338;28;20043;-68
2023/09/05 06:53:28;;;;;;;3.67;2.70;;;19.80;99.90;;;;;;5088953;28;20189;-68
2023/09/05 06:55:54;;;;;;;3.75;2.42;;;19.90;99.90;;;;;;5091295;28;20196;-68
2023/09/05 06:58:25;;;;;;;3.50;2.50;;;19.90;99.90;;;;;;5090743;28;20039;-70
2023/09/05 07:00:54;;;;;;;;;;;19.90;99.90;;;;;;5092156;28;20020;-68
2023/09/05 07:03:24;;;;;;;3.75;2.63;;;20.00;99.90;;;;;;5090755;28;19910;-70
2023/09/05 07:05:51;;;;;;;3.25;2.42;;;20.10;99.90;;;;;;5084570;28;20044;-68
2023/09/05 07:08:17;;;;;;;4.50;2.20;;;20.20;99.90;;;;;;5088362;28;20031;-68
2023/09/05 07:10:42;;;;;;;3.45;2.40;;;20.20;99.90;;;;;;5091158;28;20566;-68
2023/09/05 07:13:08;;;;;;;5.20;2.90;;;20.30;99.90;;;;;;5090825;28;20024;-68
2023/09/05 07:15:33;;;;;;;3.72;2.95;;;20.40;99.90;;;;;;5090593;28;20111;-69
2023/09/05 07:17:59;;;;;;;5.78;2.42;;;20.60;99.90;;;;;;5090990;28;20028;-69
2023/09/05 07:20:25;;;;;;;3.83;2.53;;;20.60;99.90;;;;;;5090769;28;20473;-69
2023/09/05 07:22:51;;;;;;;4.78;2.53;;;20.70;99.90;;;;;;5085751;28;20050;-69
2023/09/05 07:25:16;;;;;;;5.60;3.13;;;20.80;99.90;;;;;;5079916;28;20373;-69
2023/09/05 07:27:42;;;;;;;3.58;2.70;;;21.00;99.90;;;;;;5098295;28;20155;-69
2023/09/05 07:30:08;;;;;;;4.85;2.22;;;21.10;99.90;;;;;;5091503;28;20024;-69
2023/09/05 07:32:34;;;;;;;6.88;2.75;;;21.10;99.90;;;;;;5086895;28;20037;-69
2023/09/05 07:34:59;;;;;;;3.33;2.40;;;21.10;99.90;;;;;;5071335;28;20032;-69
2023/09/05 07:37:25;;;;;;;3.55;2.33;;;21.10;99.90;;;;;;5090315;28;20039;-70
2023/09/05 07:39:52;;;;;;;2.33;2.13;;;21.20;99.90;;;;;;5097842;28;20526;-69
2023/09/05 07:42:18;;;;;;;4.18;2.85;;;21.30;99.90;;;;;;5098628;28;20027;-69
2023/09/05 07:44:43;;;;;;;3.35;2.30;;;21.50;99.90;;;;;;5097487;28;20495;-69
2023/09/05 07:47:09;;;;;;;4.80;2.20;;;21.60;99.90;;;;;;5098790;28;20046;-68
2023/09/05 07:49:40;;;;;;;3.35;1.90;;;21.70;99.90;;;;;;5099494;28;20043;-68
2023/09/05 07:52:06;;;;;;;4.72;2.30;;;21.80;99.90;;;;;;5100332;28;20043;-68
2023/09/05 07:54:32;;;;;;;5.57;2.35;;;21.80;99.90;;;;;;5074347;28;20023;-68
2023/09/05 07:56:58;;;;;;;3.47;2.22;;;21.80;99.90;;;;;;5084241;28;20044;-68
2023/09/05 07:59:23;;;;;;;4.40;2.40;;;21.90;99.90;;;;;;5080603;28;20040;-70
2023/09/05 08:01:49;;;;;;;4.53;2.50;;;22.00;99.90;;;;;;5095006;28;20028;-69
2023/09/05 08:04:14;;;;;;;2.72;2.17;;;22.00;99.90;;;;;;5092938;28;20028;-67
2023/09/05 08:06:40;;;;;;;6.43;2.33;;;22.10;99.90;;;;;;5075296;28;20043;-67
2023/09/05 08:09:06;;;;;;;12.63;2.90;;;22.30;99.90;;;;;;5094068;28;20043;-67
2023/09/05 08:11:31;;;;;;;6.03;2.80;;;22.40;99.90;;;;;;5093839;28;20391;-67
2023/09/05 08:13:57;;;;;;;3.42;2.35;;;22.40;99.90;;;;;;5093406;28;20032;-66
2023/09/05 08:16:22;;;;;;;3.67;2.13;;;22.50;99.90;;;;;;5093551;28;20457;-67
2023/09/05 08:18:48;;;;;;;4.50;2.55;;;22.50;99.90;;;;;;5094277;28;20032;-67
2023/09/05 08:21:14;;;;;;;2.95;2.40;;;22.60;99.90;;;;;;5094478;28;20041;-67
2023/09/05 08:23:39;;;;;;;3.92;2.30;;;22.60;99.90;;;;;;5092855;28;20498;-68
2023/09/05 08:26:09;;;;;;;4.97;2.30;;;22.60;99.90;;;;;;5094197;28;20039;-67
2023/09/05 08:28:36;;;;;;;4.30;2.10;;;22.60;99.90;;;;;;5102417;28;20028;-65
2023/09/05 08:31:03;;;;;;;3.25;2.53;;;22.70;98.80;;;;;;5086797;28;20025;-67
2023/09/05 08:33:31;;;;;;;5.53;2.70;;;22.70;98.80;;;;;;5083422;28;20028;-67
2023/09/05 08:35:56;;;;;;;3.92;2.40;;;22.70;98.50;;;;;;5093574;28;20032;-67
2023/09/05 08:38:22;;;;;;;6.53;2.67;;;22.70;98.40;;;;;;5093251;28;20027;-67
2023/09/05 08:40:48;;;;;;;6.57;2.15;;;22.80;98.40;;;;;;5093696;28;20353;-66
2023/09/05 08:43:16;;;;;;;4.20;2.33;;;22.90;98.10;;;;;;5093587;28;20055;-66
2023/09/05 08:45:44;;;;;;;2.38;2.10;;;23.00;98.10;;;;;;5074871;28;20587;-67
2023/09/05 08:48:10;;;;;;;3.70;2.40;;;23.10;98.10;;;;;;5091844;28;20059;-67
2023/09/05 08:50:36;;;;;;;8.75;1.83;;;23.20;97.90;;;;;;5092643;28;20028;-67
2023/09/05 08:53:14;;;;;;;3.67;1.88;;;23.30;97.90;;;;;;5093509;28;20469;-67
2023/09/05 08:55:40;;;;;;;2.13;1.95;;;23.30;97.80;;;;;;5092485;28;20024;-67
2023/09/05 08:58:17;;;;;;;6.78;2.55;;;23.40;97.70;;;;;;5092954;28;20101;-67
2023/09/05 09:00:46;;;;;;;3.65;2.40;;;23.60;99.90;;;;;;5076904;28;20059;-67
2023/09/05 09:03:11;;;;;;;2.25;1.65;;;23.70;99.90;;;;;;5081470;28;20094;-67
2023/09/05 09:05:37;;;;;;;3.10;2.00;;;23.80;99.90;;;;;;5086787;28;20506;-67
2023/09/05 09:08:04;;;;;;;2.47;1.67;;;23.90;98.40;;;;;;5093305;28;20335;-67
2023/09/05 09:10:29;;;;;;;3.47;1.80;;;23.90;98.30;;;;;;5092017;28;20469;-67
2023/09/05 09:13:12;;;;;;;3.67;2.45;;;23.90;98.10;;;;;;5074209;28;20081;-67
2023/09/05 09:15:43;;;;;;;2.20;1.70;;;24.00;97.80;;;;;;5092863;28;20024;-67
2023/09/05 09:18:12;;;;;;;2.78;2.10;;;24.10;97.40;;;;;;5087223;28;20032;-68
2023/09/05 09:20:45;;;;;;;4.50;2.40;;;24.20;97.40;;;;;;5093116;28;20427;-68
2023/09/05 09:23:11;;;;;;;2.75;2.47;;;24.20;97.50;;;;;;5092207;28;20027;-68
2023/09/05 09:25:47;;;;;;;5.38;2.40;;;24.40;97.90;;;;;;5092769;28;20032;-68
2023/09/05 09:28:24;;;;;;;7.40;2.58;;;24.50;97.50;;;;;;5101777;28;20514;-68
2023/09/05 09:31:11;;;;;;;2.63;2.20;;;24.60;97.30;;;;;;5093370;28;20024;-68
2023/09/05 09:33:37;;;;;;;3.35;2.20;;;24.70;97.10;;;;;;5092325;28;20047;-68
2023/09/05 09:36:04;;;;;;;4.22;2.20;;;24.80;99.00;;;;;;5093143;28;20047;-68
2023/09/05 09:38:30;;;;;;;5.15;2.15;;;24.90;98.90;;;;;;5088848;28;20079;-67
2023/09/05 09:41:00;;;;;;;7.05;2.50;;;25.00;99.90;;;;;;5079012;28;20024;-67
2023/09/05 09:43:30;;;;;;;4.63;1.92;;;25.00;99.90;;;;;;5091506;28;20028;-67
2023/09/05 09:46:00;;;;;;;6.60;2.20;;;25.00;99.80;;;;;;5091303;28;20044;-67
2023/09/05 09:48:28;;;;;;;12.00;2.30;;;25.00;99.60;;;;;;5091881;28;20263;-69
2023/09/05 09:50:58;;;;;;;7.63;2.15;;;25.10;99.90;;;;;;5092747;28;20077;-68
2023/09/05 09:53:31;;;;;;;;;;;25.20;99.90;;;;;;5091768;28;20020;-69
2023/09/05 09:56:00;;;;;;;5.40;2.05;;;25.50;99.90;;;;;;5091524;28;19916;-68
2023/09/05 09:58:27;;;;;;;6.32;1.92;;;25.50;99.90;;;;;;5091753;28;20117;-69
2023/09/05 10:00:55;;;;;;;2.58;1.70;;;25.40;99.90;;;;;;5092713;28;20103;-68
2023/09/05 10:03:24;;;;;;;3.53;1.70;;;25.50;99.90;;;;;;5091522;28;20424;-69
2023/09/05 10:05:51;;;;;;;4.15;1.63;;;25.40;99.90;;;;;;5092608;28;20032;-68
2023/09/05 10:08:18;;;;;;;6.82;1.98;;;25.30;99.90;;;;;;5092099;28;20028;-68
2023/09/05 10:10:45;;;;;;;3.15;1.90;;;25.30;99.90;;;;;;5091640;28;20020;-68
2023/09/05 10:13:11;;;;;;;6.55;1.70;;;25.30;99.90;;;;;;5083304;28;20052;-68
2023/09/05 10:15:39;;;;;;;3.42;1.70;;;25.40;99.90;;;;;;5083242;28;20031;-68
2023/09/05 10:23:33;;;;;;;4.75;1.35;;;25.70;99.90;;;;;;5169908;23;20140;-68
2023/09/05 10:26:04;;;;;;;3.85;1.77;;;25.90;99.90;;;;;;5030905;28;20049;-68
2023/09/05 10:28:30;;;;;;;4.30;1.60;;;26.10;99.90;;;;;;5030064;28;20029;-68
2023/09/05 10:31:12;;;;;;;3.50;1.75;;;26.30;99.90;;;;;;5030910;28;20021;-68
2023/09/05 10:33:38;;;;;;;3.72;1.55;;;26.60;99.10;;;;;;5031371;28;20045;-68
2023/09/05 10:36:04;;;;;;;2.03;1.80;;;26.80;97.30;;;;;;5031380;28;20026;-67
2023/09/05 10:38:33;;;;;;;3.00;1.90;;;27.00;95.50;;;;;;5031200;28;20025;-68
2023/09/05 10:40:59;;;;;;;2.10;1.67;;;27.10;95.50;;;;;;5031102;28;20310;-68
2023/09/05 10:43:25;;;;;;;1.50;1.40;;;27.10;95.10;;;;;;5031307;28;20433;-68
2023/09/05 10:45:59;;;;;;;3.78;1.77;;;27.10;95.00;;;;;;5031088;28;20088;-68
2023/09/05 10:48:40;;;;;;;1.75;1.60;;;27.20;94.00;;;;;;5030885;28;20056;-68
2023/09/05 10:51:13;;;;;;;1.58;1.40;;;27.10;93.70;;;;;;5016639;28;20030;-68
2023/09/05 10:53:43;;;;;;;1.60;1.50;;;27.10;93.90;;;;;;5030658;28;20450;-69
2023/09/05 10:56:39;;;;;;;1.80;1.52;;;27.20;93.50;;;;;;5031322;28;20385;-68
2023/09/05 10:59:08;;;;;;;2.63;1.67;;;27.20;93.10;;;;;;5015453;28;20025;-68
2023/09/05 11:01:33;;;;;;;2.35;1.35;;;27.30;93.00;;;;;;5031201;28;20044;-68
2023/09/05 11:04:08;;;;;;;2.10;1.80;;;27.20;92.80;;;;;;5029730;28;20129;-68
2023/09/05 11:06:34;;;;;;;2.88;1.88;;;27.30;92.70;;;;;;5031284;28;20033;-68
2023/09/05 11:09:07;;;;;;;5.22;1.33;;;27.40;92.60;;;;;;5029981;28;20151;-68
2023/09/05 11:11:37;;;;;;;2.45;1.92;;;27.50;91.90;;;;;;5031502;28;20037;-68
2023/09/05 11:14:09;;;;;;;3.80;1.73;;;27.70;92.40;;;;;;5012526;28;20029;-68
2023/09/05 11:16:52;;;;;;;3.38;1.80;;;27.80;92.30;;;;;;5031052;28;20039;-68
2023/09/05 11:19:30;;;;;;;2.30;1.45;;;27.90;90.80;;;;;;5030592;28;20026;-68
2023/09/05 11:22:10;;;;;;;2.53;1.88;;;28.10;94.30;;;;;;5029863;28;20037;-68
2023/09/05 11:24:37;;;;;;;2.67;1.83;;;28.30;95.70;;;;;;5030532;28;20037;-68
2023/09/05 11:27:06;;;;;;;2.25;1.80;;;28.50;97.90;;;;;;5030326;28;20045;-68
2023/09/05 11:29:33;;;;;;;2.17;1.70;;;28.60;97.00;;;;;;5030539;28;20108;-68
2023/09/05 11:31:59;;;;;;;2.95;1.90;;;28.70;93.40;;;;;;5029791;28;20577;-68
2023/09/05 11:34:26;;;;;;;2.38;1.85;;;28.90;97.90;;;;;;5029678;28;20037;-68
2023/09/05 11:36:51;;;;;;;1.85;1.60;;;29.10;95.60;;;;;;5030233;28;20458;-68
2023/09/05 11:39:18;;;;;;;6.63;1.80;;;29.10;85.80;;;;;;5029815;28;20076;-68
2023/09/05 11:41:43;;;;;;;4.78;2.03;;;29.30;85.30;;;;;;5030239;28;20041;-68
2023/09/05 11:44:09;;;;;;;2.13;1.92;;;29.40;83.50;;;;;;5030594;28;20022;-68
2023/09/05 11:46:40;;;;;;;4.50;1.83;;;29.50;83.20;;;;;;5031096;28;20374;-68
2023/09/05 11:49:06;;;;;;;1.55;1.42;;;29.60;82.10;;;;;;5030169;28;20061;-68
2023/09/05 11:51:32;;;;;;;2.70;1.70;;;29.50;81.60;;;;;;5030919;28;20514;-68
2023/09/05 11:53:58;;;;;;;3.80;1.48;;;29.60;82.70;;;;;;5029569;28;20057;-68
2023/09/05 11:56:27;;;;;;;3.78;1.60;;;;;;;;;;5030688;28;20030;-68
2023/09/05 11:58:53;;;;;;;1.55;1.45;;;;;;;;;;5029556;28;20104;-68
2023/09/05 12:01:29;;;;;;;2.80;1.40;;;30.30;78.90;;;;;;5031063;28;20060;-67
2023/09/05 12:04:05;;;;;;;3.38;1.33;;;30.40;79.50;;;;;;5029556;28;20026;-68
2023/09/05 12:06:34;;;;;;;2.53;1.60;;;30.60;78.80;;;;;;5030848;28;20087;-67
2023/09/05 12:09:00;;;;;;;1.50;1.40;;;30.80;78.10;;;;;;5013572;28;20053;-67
2023/09/05 12:11:26;;;;;;;2.83;1.40;;;30.80;78.10;;;;;;5030668;28;20391;-67
2023/09/05 12:13:57;;;;;;;1.52;1.42;;;30.80;76.20;;;;;;5029520;28;20113;-68
2023/09/05 12:16:22;;;;;;;1.58;1.48;;;30.80;75.60;;;;;;5030730;28;20025;-67
2023/09/05 12:18:56;;;;;;;1.92;1.58;;;30.90;75.60;;;;;;5014921;28;20118;-68
2023/09/05 12:21:22;;;;;;;3.08;1.83;;;31.00;76.40;;;;;;5031097;28;20033;-67
2023/09/05 12:23:48;;;;;;;2.30;1.67;;;31.20;75.50;;;;;;5028887;28;20049;-67
2023/09/05 12:26:14;;;;;;;3.25;1.52;;;31.20;75.40;;;;;;5030479;28;20105;-68
2023/09/05 12:28:41;;;;;;;2.13;1.40;;;31.40;75.50;;;;;;5029505;28;20108;-68
2023/09/05 12:31:09;;;;;;;1.38;1.20;;;31.90;74.20;;;;;;5030606;28;20068;-67
2023/09/05 12:33:35;;;;;;;2.47;1.55;;;32.30;73.10;;;;;;5030137;28;20048;-67
2023/09/05 12:36:01;;;;;;;1.90;1.70;;;32.60;72.30;;;;;;5029584;28;20497;-67
2023/09/05 12:38:29;;;;;;;1.60;1.50;;;32.80;72.10;;;;;;5030147;28;20341;-68
2023/09/05 12:40:57;;;;;;;4.10;1.30;;;32.90;71.50;;;;;;5028579;28;20021;-68
2023/09/05 12:43:24;;;;;;;2.35;1.23;;;33.10;71.60;;;;;;5028522;28;20029;-67
2023/09/05 12:45:50;;;;;;;1.30;1.20;;;33.40;70.60;;;;;;5031866;28;20033;-67
2023/09/05 12:48:16;;;;;;;1.52;1.42;;;33.70;70.90;;;;;;5033667;28;20044;-68
2023/09/05 12:50:44;;;;;;;2.13;1.60;;;33.80;70.80;;;;;;5033060;28;20411;-69
2023/09/05 12:53:10;;;;;;;1.52;1.42;;;33.70;70.10;;;;;;5033330;28;20037;-67
2023/09/05 12:55:37;;;;;;;1.52;1.42;;;33.80;70.10;;;;;;5033975;28;20033;-68
2023/09/05 12:58:06;;;;;;;7.10;1.70;;;33.60;70.10;;;;;;5032128;28;20047;-68
2023/09/05 13:00:33;;;;;;;1.70;1.57;;;33.80;70.10;;;;;;5029428;28;20478;-67
2023/09/05 13:03:00;;;;;;;3.03;1.73;;;34.00;69.40;;;;;;5033115;28;20449;-67
2023/09/05 13:05:28;;;;;;;2.28;1.40;;;33.80;69.40;;;;;;5033669;28;20056;-68
2023/09/05 13:07:54;;;;;;;4.10;1.33;;;33.70;69.50;;;;;;5032185;28;20472;-68
2023/09/05 13:10:19;;;;;;;2.35;1.30;;;33.60;69.60;;;;;;5033827;28;20032;-68
2023/09/05 13:12:46;;;;;;;3.92;1.50;;;33.60;69.30;;;;;;5031745;28;20022;-68
2023/09/05 13:15:12;;;;;;;1.73;1.63;;;33.60;69.00;;;;;;5033543;28;20030;-67
2023/09/05 13:17:37;;;;;;;3.30;1.40;;;33.30;69.00;;;;;;5033276;28;20095;-69